createdAt,value
2022-09-20T00:02:10.060Z,97888.47
2022-09-20T00:04:40.642Z,97885.97
2022-09-20T00:07:10.489Z,97890.16
2022-09-20T00:09:43.300Z,97893.03
2022-09-20T00:12:13.350Z,97894.13
2022-09-20T00:14:43.127Z,97895.75
2022-09-20T00:17:13.145Z,97903.69
2022-09-20T00:19:43.065Z,97899.25
2022-09-20T00:22:12.951Z,97902.72
2022-09-20T00:24:46.777Z,97903.09
2022-09-20T00:27:19.146Z,97910.88
2022-09-20T00:29:49.063Z,97912.31
2022-09-20T00:32:19.761Z,97914.97
2022-09-20T00:35:07.687Z,97917.13
2022-09-20T00:37:41.923Z,97917.13
2022-09-20T00:40:22.214Z,97913.31
2022-09-20T00:42:52.825Z,97910.53
2022-09-20T00:45:31.344Z,97918.09
2022-09-20T00:48:28.099Z,97919.97
2022-09-20T00:51:07.032Z,97914.47
2022-09-20T00:53:44.743Z,97929.22
2022-09-20T00:56:22.403Z,97916.38
2022-09-20T00:59:09.761Z,97924.00
2022-09-20T01:01:40.779Z,97923.09
2022-09-20T01:04:13.195Z,97935.78
2022-09-20T01:06:46.882Z,97928.47
2022-09-20T01:09:17.028Z,97935.09
2022-09-20T01:11:49.115Z,97936.63
2022-09-20T01:14:24.026Z,97944.91
2022-09-20T01:17:02.898Z,97945.59
2022-09-20T01:19:44.857Z,97945.09
2022-09-20T01:22:34.045Z,97954.47
2022-09-20T01:25:18.755Z,97955.19
2022-09-20T01:27:52.732Z,97958.56
2022-09-20T01:30:33.317Z,97955.53
2022-09-20T01:33:36.920Z,97955.88
2022-09-20T01:36:28.816Z,97967.63
2022-09-20T01:39:38.189Z,97965.91
2022-09-20T01:42:11.485Z,97964.38
2022-09-20T01:45:02.650Z,97965.41
2022-09-20T01:47:53.682Z,97967.59
2022-09-20T01:50:46.993Z,97967.00
2022-09-20T01:53:33.196Z,97974.59
2022-09-20T01:56:18.296Z,97976.63
2022-09-20T01:59:23.087Z,97975.97
2022-09-20T02:01:56.470Z,97986.16
2022-09-20T02:04:53.248Z,97993.13
2022-09-20T02:07:44.748Z,98001.03
2022-09-20T02:10:40.522Z,98001.13
2022-09-20T02:13:33.431Z,98010.84
2022-09-20T02:16:27.428Z,98004.25
2022-09-20T02:19:12.717Z,98007.28
2022-09-20T02:22:04.113Z,98013.28
2022-09-20T02:25:04.214Z,98015.22
2022-09-20T02:28:07.539Z,98011.47
2022-09-20T02:31:03.990Z,98012.16
2022-09-20T02:34:10.963Z,98019.84
2022-09-20T02:36:59.673Z,98016.75
2022-09-20T02:39:47.168Z,98022.94
2022-09-20T02:42:28.324Z,98024.97
2022-09-20T02:45:12.198Z,98025.44
2022-09-20T02:47:45.876Z,98031.88
2022-09-20T02:50:24.951Z,98034.94
2022-09-20T02:53:34.670Z,98033.47
2022-09-20T02:56:22.702Z,98036.22
2022-09-20T02:59:08.442Z,98037.78
2022-09-20T03:01:59.569Z,98044.97
2022-09-20T03:05:07.829Z,98048.56
2022-09-20T03:08:04.475Z,98057.84
2022-09-20T03:10:54.366Z,98055.09
2022-09-20T03:13:44.687Z,98059.84
2022-09-20T03:16:52.293Z,98060.59
2022-09-20T03:19:37.324Z,98060.91
2022-09-20T03:22:35.096Z,98079.59
2022-09-20T03:25:24.505Z,98079.94
2022-09-20T03:28:13.319Z,98080.56
2022-09-20T03:30:58.360Z,98079.56
2022-09-20T03:33:52.805Z,98076.72
2022-09-20T03:36:31.600Z,98080.31
2022-09-20T03:39:45.990Z,98087.59
2022-09-20T03:42:32.224Z,98084.47
2022-09-20T03:45:14.412Z,98088.53
2022-09-20T03:48:00.477Z,98094.72
2022-09-20T03:50:54.826Z,98088.84
2022-09-20T03:53:43.595Z,98090.41
2022-09-20T03:56:20.709Z,98094.06
2022-09-20T03:59:38.205Z,98101.78
2022-09-20T04:02:18.029Z,98096.22
2022-09-20T04:04:53.918Z,98090.22
2022-09-20T04:07:51.716Z,98091.38
2022-09-20T04:10:56.428Z,98090.78
2022-09-20T04:13:41.637Z,98097.22
2022-09-20T04:16:45.698Z,98094.66
2022-09-20T04:19:47.393Z,98094.69
2022-09-20T04:22:17.647Z,98100.00
2022-09-20T04:24:57.640Z,98094.66
2022-09-20T04:27:39.716Z,98098.69
2022-09-20T04:30:15.571Z,98096.78
2022-09-20T04:33:03.408Z,98103.72
2022-09-20T04:36:15.758Z,98104.41
2022-09-20T04:38:47.542Z,98097.44
2022-09-20T04:41:23.862Z,98104.94
2022-09-20T04:44:14.988Z,98101.66
2022-09-20T04:47:14.264Z,98100.97
2022-09-20T04:50:22.256Z,98106.22
2022-09-20T04:53:30.204Z,98103.09
2022-09-20T04:56:21.378Z,98098.41
2022-09-20T04:59:12.389Z,98103.09
2022-09-20T05:01:56.096Z,98104.44
2022-09-20T05:04:53.872Z,98100.97
2022-09-20T05:07:48.096Z,98100.09
2022-09-20T05:10:42.093Z,98104.69
2022-09-20T05:13:32.431Z,98101.56
2022-09-20T05:16:26.115Z,98101.13
2022-09-20T05:19:16.893Z,98095.44
2022-09-20T05:22:07.953Z,98100.28
2022-09-20T05:25:15.272Z,98092.59
2022-09-20T05:28:23.911Z,98096.44
2022-09-20T05:31:02.584Z,98101.16
2022-09-20T05:34:36.893Z,98098.78
2022-09-20T05:37:25.075Z,98093.16
2022-09-20T05:40:07.718Z,98092.50
2022-09-20T05:42:59.858Z,98091.75
2022-09-20T05:45:48.984Z,98096.84
2022-09-20T05:48:48.513Z,98088.00
2022-09-20T05:51:49.384Z,98084.38
2022-09-20T05:54:28.264Z,98092.53
2022-09-20T05:57:21.040Z,98087.53
2022-09-20T06:00:03.456Z,98082.66
2022-09-20T06:02:52.909Z,98088.34
2022-09-20T06:05:41.015Z,98085.00
2022-09-20T06:08:44.658Z,98085.34
2022-09-20T06:11:44.440Z,98077.28
2022-09-20T06:14:33.780Z,98074.53
2022-09-20T06:17:19.664Z,98075.44
2022-09-20T06:20:26.418Z,98069.34
2022-09-20T06:23:00.841Z,98070.44
2022-09-20T06:25:33.408Z,98069.88
2022-09-20T06:28:11.143Z,98065.88
2022-09-20T06:30:57.137Z,98064.19
2022-09-20T06:33:30.805Z,98055.88
2022-09-20T06:36:30.144Z,98055.66
2022-09-20T06:39:40.096Z,98046.22
2022-09-20T06:45:13.194Z,98048.72
2022-09-20T06:47:43.195Z,98045.91
2022-09-20T06:50:21.003Z,98037.75
2022-09-20T06:52:51.647Z,98037.63
2022-09-20T06:55:29.734Z,98040.84
2022-09-20T06:57:59.863Z,98027.72
2022-09-20T07:00:29.551Z,98030.56
2022-09-20T07:02:59.519Z,98032.22
2022-09-20T07:05:29.576Z,98021.53
2022-09-20T07:08:03.120Z,98022.72
2022-09-20T07:10:33.078Z,98015.56
2022-09-20T07:13:04.578Z,98015.56
2022-09-20T07:15:36.203Z,98011.91
2022-09-20T07:18:06.546Z,98011.22
2022-09-20T07:20:36.767Z,98010.25
2022-09-20T07:23:06.425Z,98006.56
2022-09-20T07:25:37.995Z,98009.44
2022-09-20T07:28:09.377Z,98006.91
2022-09-20T07:30:47.858Z,98004.56
2022-09-20T07:33:23.891Z,98004.56
2022-09-20T07:35:57.954Z,98004.50
2022-09-20T07:38:28.769Z,97994.97
2022-09-20T07:41:03.616Z,97988.53
2022-09-20T07:43:34.311Z,97987.56
2022-09-20T07:46:05.399Z,97977.88
2022-09-20T07:48:38.381Z,97967.75
2022-09-20T07:51:15.907Z,97970.09
2022-09-20T07:53:49.684Z,97958.59
2022-09-20T07:56:20.218Z,97963.19
2022-09-20T07:58:52.534Z,97955.53
2022-09-20T08:01:24.023Z,97956.53
2022-09-20T08:03:55.532Z,97943.34
2022-09-20T08:06:25.729Z,97944.78
2022-09-20T08:08:57.438Z,97934.50
2022-09-20T08:11:28.252Z,97940.34
2022-09-20T08:14:06.172Z,97936.44
2022-09-20T08:16:44.926Z,97932.44
2022-09-20T08:19:23.660Z,97928.88
2022-09-20T08:21:55.257Z,97928.53
2022-09-20T08:24:28.005Z,97919.00
2022-09-20T08:26:58.114Z,97919.91
2022-09-20T08:29:30.308Z,97925.06
2022-09-20T08:32:02.435Z,97915.28
2022-09-20T08:34:32.559Z,97912.31
2022-09-20T08:37:06.807Z,97906.88
2022-09-20T08:42:35.701Z,97903.34
2022-09-20T08:45:22.333Z,97902.59
2022-09-20T08:48:04.150Z,97897.63
2022-09-20T08:50:36.157Z,97904.41
2022-09-20T08:53:07.284Z,97896.72
2022-09-20T08:55:44.501Z,97894.63
2022-09-20T08:58:16.630Z,97882.53
2022-09-20T09:00:49.429Z,97873.34
2022-09-20T09:03:20.319Z,97868.63
2022-09-20T09:05:56.874Z,97863.94
2022-09-20T09:08:37.552Z,97860.44
2022-09-20T09:11:11.073Z,97859.16
2022-09-20T09:14:03.502Z,97856.78
2022-09-20T09:16:39.179Z,97851.91
2022-09-20T09:19:34.262Z,97848.69
2022-09-20T09:22:09.037Z,97848.69
2022-09-20T09:24:38.981Z,97840.50
2022-09-20T09:27:23.105Z,97837.22
2022-09-20T09:29:58.069Z,97830.00
2022-09-20T09:32:32.770Z,97825.75
2022-09-20T09:35:25.012Z,97813.94
2022-09-20T09:38:04.241Z,97814.50
2022-09-20T09:40:35.160Z,97806.34
2022-09-20T09:43:06.091Z,97801.41
2022-09-20T09:45:40.925Z,97797.38
2022-09-20T09:48:42.932Z,97794.22
2022-09-20T09:51:20.322Z,97787.34
2022-09-20T09:53:50.852Z,97792.38
2022-09-20T09:56:52.367Z,97789.28
2022-09-20T09:59:26.150Z,97792.50
2022-09-20T10:02:34.721Z,97788.66
2022-09-20T10:05:12.017Z,97783.53
2022-09-20T10:08:08.742Z,97776.72
2022-09-20T10:11:15.334Z,97782.44
2022-09-20T10:14:22.435Z,97770.94
2022-09-20T10:17:21.326Z,97771.09
2022-09-20T10:20:13.958Z,97781.81
2022-09-20T10:23:21.362Z,97775.56
2022-09-20T10:25:58.856Z,97772.50
2022-09-20T10:28:49.964Z,97766.81
2022-09-20T10:31:59.474Z,97770.47
2022-09-20T10:34:41.088Z,97769.28
2022-09-20T10:37:36.783Z,97763.81
2022-09-20T10:40:26.912Z,97761.44
2022-09-20T10:43:18.655Z,97759.81
2022-09-20T10:46:14.575Z,97757.06
2022-09-20T10:48:53.003Z,97756.78
2022-09-20T10:52:03.000Z,97744.88
2022-09-20T10:54:49.507Z,97747.63
2022-09-20T10:57:29.082Z,97744.44
2022-09-20T11:00:21.904Z,97743.16
2022-09-20T11:03:28.435Z,97743.34
2022-09-20T11:06:01.051Z,97752.72
2022-09-20T11:08:36.945Z,97734.16
2022-09-20T11:11:21.376Z,97732.78
2022-09-20T11:14:15.836Z,97727.34
2022-09-20T11:17:02.166Z,97730.19
2022-09-20T11:19:49.755Z,97727.47
2022-09-20T11:22:25.480Z,97721.97
2022-09-20T11:25:29.784Z,97715.75
2022-09-20T11:28:16.744Z,97716.78
2022-09-20T11:30:57.837Z,97713.88
2022-09-20T11:33:50.559Z,97706.34
2022-09-20T11:36:54.001Z,97702.09
2022-09-20T11:39:47.492Z,97710.47
2022-09-20T11:42:30.323Z,97709.50
2022-09-20T11:45:00.390Z,97702.00
2022-09-20T11:47:54.980Z,97694.88
2022-09-20T11:50:41.105Z,97700.72
2022-09-20T11:53:36.439Z,97700.00
2022-09-20T11:56:13.261Z,97693.97
2022-09-20T11:58:51.325Z,97695.97
2022-09-20T12:01:43.948Z,97697.63
2022-09-20T12:04:33.210Z,97703.09
2022-09-20T12:07:10.508Z,97704.13
2022-09-20T12:09:45.562Z,97699.03
2022-09-20T12:12:39.707Z,97698.94
2022-09-20T12:15:28.436Z,97702.81
2022-09-20T12:18:03.426Z,97707.22
2022-09-20T12:20:36.117Z,97705.41
2022-09-20T12:23:42.742Z,97711.00
2022-09-20T12:26:23.261Z,97709.53
2022-09-20T12:29:06.702Z,97702.41
2022-09-20T12:31:48.942Z,97709.72
2022-09-20T12:34:21.831Z,97711.81
2022-09-20T12:36:57.705Z,97718.09
2022-09-20T12:39:35.738Z,97713.81
2022-09-20T12:42:29.136Z,97718.91
2022-09-20T12:45:06.844Z,97720.03
2022-09-20T12:47:39.522Z,97717.84
2022-09-20T12:50:35.190Z,97714.81
2022-09-20T12:53:14.073Z,97713.59
2022-09-20T12:56:09.230Z,97720.41
2022-09-20T12:58:54.622Z,97726.59
2022-09-20T13:01:24.405Z,97724.75
2022-09-20T13:03:54.803Z,97727.28
2022-09-20T13:06:26.564Z,97719.03
2022-09-20T13:09:01.518Z,97718.75
2022-09-20T13:11:42.495Z,97709.03
2022-09-20T13:14:27.187Z,97713.91
2022-09-20T13:17:01.587Z,97722.53
2022-09-20T13:19:40.204Z,97725.69
2022-09-20T13:22:28.828Z,97726.50
2022-09-20T13:25:08.038Z,97726.28
2022-09-20T13:27:43.081Z,97735.34
2022-09-20T13:30:28.175Z,97741.31
2022-09-20T13:32:58.632Z,97739.44
2022-09-20T13:35:32.993Z,97737.25
2022-09-20T13:38:07.234Z,97743.16
2022-09-20T13:40:50.217Z,97741.50
2022-09-20T13:43:42.154Z,97750.59
2022-09-20T13:46:30.631Z,97741.41
2022-09-20T13:49:22.460Z,97747.84
2022-09-20T13:51:53.326Z,97754.00
2022-09-20T13:54:36.613Z,97757.63
2022-09-20T13:57:14.106Z,97762.13
2022-09-20T13:59:48.264Z,97765.88
2022-09-20T14:02:36.198Z,97766.28
2022-09-20T14:05:08.824Z,97772.69
2022-09-20T14:07:38.276Z,97770.72
2022-09-20T14:10:35.641Z,97781.84
2022-09-20T14:13:09.578Z,97784.53
2022-09-20T14:15:43.518Z,97787.47
2022-09-20T14:18:22.579Z,97792.50
2022-09-20T14:20:54.515Z,97797.50
2022-09-20T14:23:29.103Z,97802.53
2022-09-20T14:26:09.635Z,97801.81
2022-09-20T14:28:39.894Z,97808.94
2022-09-20T14:31:45.482Z,97808.25
2022-09-20T14:34:15.649Z,97818.38
2022-09-20T14:36:46.218Z,97813.50
2022-09-20T14:39:20.652Z,97812.28
2022-09-20T14:41:51.907Z,97815.22
2022-09-20T14:44:35.205Z,97820.34
2022-09-20T14:47:30.472Z,97823.94
2022-09-20T14:50:00.468Z,97828.59
2022-09-20T14:52:34.149Z,97829.72
2022-09-20T14:55:15.727Z,97834.25
2022-09-20T14:57:48.246Z,97838.47
2022-09-20T15:00:19.021Z,97841.78
2022-09-20T15:02:49.810Z,97845.31
2022-09-20T15:05:29.512Z,97850.72
2022-09-20T15:08:00.472Z,97853.53
2022-09-20T15:10:31.735Z,97858.50
2022-09-20T15:13:01.841Z,97858.50
2022-09-20T15:15:31.784Z,97859.19
2022-09-20T15:18:01.541Z,97860.72
2022-09-20T15:20:32.206Z,97863.09
2022-09-20T15:23:03.244Z,97866.97
2022-09-20T15:25:33.511Z,97867.41
2022-09-20T15:28:03.586Z,97871.13
2022-09-20T15:30:33.334Z,97883.00
2022-09-20T15:33:03.834Z,97891.88
2022-09-20T15:35:33.866Z,97898.16
2022-09-20T15:38:03.215Z,97897.88
2022-09-20T15:40:34.922Z,97903.44
2022-09-20T15:43:04.828Z,97907.47
2022-09-20T15:45:36.900Z,97899.94
2022-09-20T15:48:06.675Z,97903.03
2022-09-20T15:50:37.148Z,97907.56
2022-09-20T15:53:07.499Z,97905.06
2022-09-20T15:55:42.160Z,97914.44
2022-09-20T15:58:15.970Z,97917.47
2022-09-20T16:00:47.857Z,97913.31
2022-09-20T16:03:18.658Z,97916.25
2022-09-20T16:06:04.322Z,97916.81
2022-09-20T16:08:36.614Z,97913.13
2022-09-20T16:11:08.666Z,97923.59
2022-09-20T16:13:39.139Z,97923.03
2022-09-20T16:16:11.528Z,97923.03
2022-09-20T16:19:03.020Z,97926.09
2022-09-20T16:21:43.907Z,97922.78
2022-09-20T16:24:14.084Z,97923.59
2022-09-20T16:26:44.572Z,97936.53
2022-09-20T16:29:14.459Z,97936.94
2022-09-20T16:31:51.887Z,97934.31
2022-09-20T16:34:24.033Z,97940.56
2022-09-20T16:36:55.315Z,97936.66
2022-09-20T16:39:28.987Z,97933.59
2022-09-20T16:42:13.532Z,97936.09
2022-09-20T16:44:45.321Z,97939.97
2022-09-20T16:47:24.411Z,97944.16
2022-09-20T16:49:56.477Z,97938.63
2022-09-20T16:52:27.495Z,97943.22
2022-09-20T16:54:57.935Z,97938.47
2022-09-20T16:57:27.922Z,97942.09
2022-09-20T16:59:59.204Z,97940.66
2022-09-20T17:02:29.823Z,97936.53
2022-09-20T17:05:00.931Z,97941.66
2022-09-20T17:07:32.590Z,97941.50
2022-09-20T17:10:03.131Z,97945.06
2022-09-20T17:12:35.525Z,97945.34
2022-09-20T17:15:04.842Z,97942.28
2022-09-20T17:17:35.922Z,97937.00
2022-09-20T17:20:09.272Z,97941.13
2022-09-20T17:22:39.622Z,97939.06
2022-09-20T17:25:11.473Z,97937.94
2022-09-20T17:27:41.838Z,97939.44
2022-09-20T17:30:12.425Z,97947.28
2022-09-20T17:32:51.833Z,97953.00
2022-09-20T17:35:21.836Z,97947.16
2022-09-20T17:37:51.241Z,97956.13
2022-09-20T17:40:21.149Z,97963.13
2022-09-20T17:42:50.733Z,97952.28
2022-09-20T17:45:20.539Z,97954.56
2022-09-20T17:47:50.086Z,97952.59
2022-09-20T17:50:19.964Z,97952.34
2022-09-20T17:52:50.257Z,97950.88
2022-09-20T17:55:20.028Z,97958.41
2022-09-20T17:57:49.586Z,97951.75
2022-09-20T18:00:19.669Z,97951.13
2022-09-20T18:02:49.130Z,97957.31
2022-09-20T18:05:19.017Z,97955.63
2022-09-20T18:07:49.013Z,97955.91
2022-09-20T18:10:18.811Z,97957.44
2022-09-20T18:12:48.657Z,97945.44
2022-09-20T18:15:19.561Z,97953.75
2022-09-20T18:17:53.838Z,97966.19
2022-09-20T18:20:24.306Z,97956.81
2022-09-20T18:22:54.586Z,97957.19
2022-09-20T18:25:25.056Z,97953.13
2022-09-20T18:27:55.560Z,97954.38
2022-09-20T18:30:25.084Z,97956.03
2022-09-20T18:32:55.601Z,97954.84
2022-09-20T18:35:26.136Z,97945.19
2022-09-20T18:37:56.044Z,97948.53
2022-09-20T18:40:25.923Z,97956.94
2022-09-20T18:43:02.377Z,97953.50
2022-09-20T18:45:34.003Z,97949.78
2022-09-20T18:48:03.982Z,97945.91
2022-09-20T18:50:33.584Z,97948.28
2022-09-20T18:53:03.239Z,97944.28
2022-09-20T18:55:33.323Z,97939.66
2022-09-20T18:58:04.201Z,97938.47
2022-09-20T19:00:35.172Z,97934.34
2022-09-20T19:03:16.966Z,97933.09
2022-09-20T19:05:56.772Z,97923.50
2022-09-20T19:08:42.224Z,97912.72
2022-09-20T19:11:19.644Z,97919.56
2022-09-20T19:13:56.821Z,97916.03
2022-09-20T19:16:43.159Z,97917.66
2022-09-20T19:19:30.350Z,97917.66
2022-09-20T19:22:03.546Z,97909.59
2022-09-20T19:24:47.911Z,97902.81
2022-09-20T19:27:18.022Z,97898.16
2022-09-20T19:29:48.062Z,97893.25
2022-09-20T19:32:23.100Z,97895.63
2022-09-20T19:34:56.609Z,97883.50
2022-09-20T19:38:00.531Z,97890.50
2022-09-20T19:40:32.466Z,97899.59
2022-09-20T19:43:04.712Z,97895.06
2022-09-20T19:46:07.337Z,97897.34
2022-09-20T19:48:40.510Z,97894.47
2022-09-20T19:51:15.327Z,97898.13
2022-09-20T19:53:45.153Z,97897.53
2022-09-20T19:56:23.878Z,97899.06
2022-09-20T19:58:56.250Z,97890.19
2022-09-20T20:01:27.432Z,97889.63
2022-09-20T20:03:57.843Z,97891.63
2022-09-20T20:06:43.890Z,97885.50
2022-09-20T20:09:26.653Z,97889.50
2022-09-20T20:12:16.444Z,97879.00
2022-09-20T20:15:23.474Z,97883.00
2022-09-20T20:18:16.626Z,97890.28
2022-09-20T20:20:53.157Z,97881.81
2022-09-20T20:23:44.365Z,97884.75
2022-09-20T20:26:25.320Z,97876.22
2022-09-20T20:28:55.856Z,97873.50
2022-09-20T20:31:25.596Z,97879.72
2022-09-20T20:33:55.986Z,97880.22
2022-09-20T20:36:26.103Z,97888.00
2022-09-20T20:38:56.630Z,97883.03
2022-09-20T20:41:26.463Z,97879.78
2022-09-20T20:43:57.678Z,97875.03
2022-09-20T20:46:27.672Z,97881.25
2022-09-20T20:48:58.005Z,97872.19
2022-09-20T20:51:28.579Z,97873.47
2022-09-20T20:53:59.724Z,97871.41
2022-09-20T20:56:31.500Z,97867.31
2022-09-20T20:59:02.015Z,97865.94
2022-09-20T21:01:46.925Z,97862.03
2022-09-20T21:04:18.380Z,97857.06
2022-09-20T21:06:48.788Z,97865.22
2022-09-20T21:09:19.069Z,97865.34
2022-09-20T21:11:49.603Z,97867.97
2022-09-20T21:14:19.908Z,97861.97
2022-09-20T21:16:49.792Z,97860.97
2022-09-20T21:19:20.392Z,97860.47
2022-09-20T21:21:50.387Z,97864.66
2022-09-20T21:24:20.861Z,97853.25
2022-09-20T21:26:50.541Z,97854.09
2022-09-20T21:29:21.151Z,97858.34
2022-09-20T21:31:51.012Z,97852.66
2022-09-20T21:34:20.920Z,97852.53
2022-09-20T21:36:50.760Z,97846.09
2022-09-20T21:39:20.294Z,97851.63
2022-09-20T21:41:49.892Z,97853.53
2022-09-20T21:44:20.280Z,97845.72
2022-09-20T21:46:50.994Z,97844.66
2022-09-20T21:49:20.624Z,97840.97
2022-09-20T21:51:53.464Z,97836.03
2022-09-20T21:54:23.267Z,97840.81
2022-09-20T21:56:56.831Z,97840.63
2022-09-20T21:59:27.436Z,97834.59
2022-09-20T22:01:59.949Z,97838.31
2022-09-20T22:04:30.209Z,97831.88
2022-09-20T22:07:00.454Z,97834.19
2022-09-20T22:09:30.251Z,97837.25
2022-09-20T22:11:59.872Z,97842.28
2022-09-20T22:14:29.455Z,97839.69
2022-09-20T22:17:00.721Z,97841.59
2022-09-20T22:19:32.683Z,97831.81
2022-09-20T22:22:02.261Z,97839.00
2022-09-20T22:24:35.244Z,97834.09
2022-09-20T22:27:05.364Z,97834.81
2022-09-20T22:29:35.262Z,97835.66
2022-09-20T22:32:04.892Z,97826.78
2022-09-20T22:34:35.257Z,97828.31
2022-09-20T22:37:05.057Z,97827.03
2022-09-20T22:39:35.002Z,97836.13
2022-09-20T22:42:04.565Z,97837.56
2022-09-20T22:44:35.255Z,97832.22
2022-09-20T22:47:05.206Z,97835.19
2022-09-20T22:49:34.968Z,97834.94
2022-09-20T22:52:04.777Z,97829.88
2022-09-20T22:54:37.155Z,97833.75
2022-09-20T22:57:07.366Z,97827.38
2022-09-20T22:59:37.077Z,97835.41
2022-09-20T23:02:07.775Z,97839.16
2022-09-20T23:04:37.305Z,97838.88
2022-09-20T23:07:07.151Z,97841.66
2022-09-20T23:09:36.557Z,97842.59
2022-09-20T23:12:06.980Z,97836.38
2022-09-20T23:14:36.745Z,97838.75
2022-09-20T23:17:06.002Z,97835.78
2022-09-20T23:19:35.909Z,97838.28
2022-09-20T23:22:06.022Z,97836.63
2022-09-20T23:24:36.540Z,97829.66
2022-09-20T23:27:06.117Z,97835.38
2022-09-20T23:29:35.899Z,97834.19
2022-09-20T23:32:05.737Z,97835.63
2022-09-20T23:34:35.591Z,97842.09
2022-09-20T23:37:05.366Z,97848.31
2022-09-20T23:39:35.096Z,97841.59
2022-09-20T23:42:05.177Z,97842.94
2022-09-20T23:44:35.184Z,97852.41
2022-09-20T23:47:05.170Z,97845.00
2022-09-20T23:49:35.005Z,97848.97
2022-09-20T23:52:04.885Z,97856.97
2022-09-20T23:54:34.092Z,97855.19
2022-09-20T23:57:04.161Z,97863.69
2022-09-20T23:59:34.354Z,97870.75
